createdAt,value
2018-12-17T00:00:43.539Z,94.47
2018-12-17T00:03:10.979Z,48.63
2018-12-17T00:05:41.785Z,35.55
2018-12-17T00:08:07.892Z,76.28
2018-12-17T00:10:35.332Z,73.65
2018-12-17T00:13:02.876Z,121.77
2018-12-17T00:15:30.334Z,121.35
2018-12-17T00:17:57.888Z,207.25
2018-12-17T00:20:25.395Z,142.75
2018-12-17T00:22:52.836Z,187.18
2018-12-17T00:25:20.301Z,132.23
2018-12-17T00:27:47.781Z,142.45
2018-12-17T00:30:15.236Z,58.57
2018-12-17T00:32:42.703Z,106.63
2018-12-17T00:35:10.183Z,65.72
2018-12-17T00:37:37.652Z,61.28
2018-12-17T00:40:06.682Z,62.30
2018-12-17T00:42:34.128Z,38.35
2018-12-17T00:45:01.574Z,53.42
2018-12-17T00:47:29.131Z,164.07
2018-12-17T00:49:56.580Z,194.35
2018-12-17T00:52:24.039Z,109.25
2018-12-17T00:54:51.513Z,132.35
2018-12-17T00:57:19.011Z,92.05
2018-12-17T00:59:46.464Z,91.57
2018-12-17T01:02:13.935Z,122.35
2018-12-17T01:04:41.419Z,110.65
2018-12-17T01:07:08.875Z,89.28
2018-12-17T01:09:36.322Z,84.22
2018-12-17T01:12:03.793Z,47.08
2018-12-17T01:14:31.236Z,50.20
2018-12-17T01:16:58.686Z,38.40
2018-12-17T01:19:26.296Z,32.20
2018-12-17T01:21:54.083Z,23.30
2018-12-17T01:24:21.576Z,25.02
2018-12-17T01:26:49.027Z,21.87
2018-12-17T01:29:16.496Z,29.02
2018-12-17T01:31:43.939Z,23.38
2018-12-17T01:34:11.419Z,24.43
2018-12-17T01:36:38.864Z,24.65
2018-12-17T01:39:06.779Z,22.22
2018-12-17T01:41:34.257Z,37.63
2018-12-17T01:44:01.736Z,35.92
2018-12-17T01:46:29.207Z,38.83
2018-12-17T01:48:56.654Z,37.05
2018-12-17T01:51:24.153Z,51.45
2018-12-17T01:53:51.623Z,31.02
2018-12-17T01:56:19.063Z,23.75
2018-12-17T01:58:46.508Z,23.87
2018-12-17T02:01:13.956Z,22.40
2018-12-17T02:03:41.431Z,19.20
2018-12-17T02:06:08.907Z,17.57
2018-12-17T02:08:36.471Z,17.73
2018-12-17T02:11:03.947Z,18.40
2018-12-17T02:13:31.398Z,31.35
2018-12-17T02:15:58.880Z,26.75
2018-12-17T02:18:26.324Z,19.98
2018-12-17T02:20:53.776Z,21.82
2018-12-17T02:23:21.229Z,20.95
2018-12-17T02:25:48.707Z,21.80
2018-12-17T02:28:16.158Z,17.50
2018-12-17T02:30:43.632Z,18.15
2018-12-17T02:33:11.079Z,18.55
2018-12-17T02:35:38.553Z,20.45
2018-12-17T02:38:06.028Z,17.42
2018-12-17T02:40:33.512Z,20.10
2018-12-17T02:43:00.963Z,19.98
2018-12-17T02:45:28.428Z,16.37
2018-12-17T02:47:55.910Z,19.45
2018-12-17T02:50:23.393Z,18.67
2018-12-17T02:52:50.837Z,17.40
2018-12-17T02:55:18.296Z,25.15
2018-12-17T02:57:45.819Z,19.73
2018-12-17T03:00:13.300Z,16.10
2018-12-17T03:02:40.835Z,16.20
2018-12-17T03:05:08.551Z,18.25
2018-12-17T03:07:35.996Z,27.02
2018-12-17T03:10:04.878Z,23.02
2018-12-17T03:12:32.316Z,25.75
2018-12-17T03:14:59.964Z,36.60
2018-12-17T03:17:27.442Z,51.50
2018-12-17T03:19:54.903Z,59.00
2018-12-17T03:22:22.398Z,65.17
2018-12-17T03:24:49.949Z,51.90
2018-12-17T03:27:17.409Z,54.75
2018-12-17T03:29:44.852Z,55.45
2018-12-17T03:32:12.361Z,45.17
2018-12-17T03:34:39.889Z,47.40
2018-12-17T03:37:07.377Z,47.27
2018-12-17T03:39:34.835Z,44.27
2018-12-17T03:42:02.343Z,38.15
2018-12-17T03:44:29.891Z,58.58
2018-12-17T03:46:57.347Z,67.30
2018-12-17T03:49:24.819Z,61.53
2018-12-17T03:51:52.269Z,86.22
2018-12-17T03:54:19.724Z,58.50
2018-12-17T03:56:47.211Z,46.45
2018-12-17T03:59:14.749Z,66.72
2018-12-17T04:01:42.263Z,36.03
2018-12-17T04:04:09.754Z,42.25
2018-12-17T04:06:37.240Z,57.95
2018-12-17T04:09:05.947Z,69.95
2018-12-17T04:11:33.420Z,56.30
2018-12-17T04:14:00.904Z,44.48
2018-12-17T04:16:28.360Z,40.15
2018-12-17T04:18:55.840Z,45.83
2018-12-17T04:21:23.333Z,72.05
2018-12-17T04:23:50.870Z,62.58
2018-12-17T04:26:18.326Z,56.35
2018-12-17T04:28:45.762Z,42.13
2018-12-17T04:31:13.250Z,38.25
2018-12-17T04:33:40.728Z,44.10
2018-12-17T04:36:08.200Z,61.73
2018-12-17T04:38:35.668Z,44.00
2018-12-17T04:41:03.159Z,82.67
2018-12-17T04:43:30.625Z,81.23
2018-12-17T04:45:58.079Z,49.77
2018-12-17T04:48:25.557Z,42.58
2018-12-17T04:50:53.045Z,76.50
2018-12-17T04:53:20.536Z,65.97
2018-12-17T04:55:47.996Z,33.33
2018-12-17T04:58:15.444Z,54.80
2018-12-17T05:00:42.969Z,56.30
2018-12-17T05:03:10.417Z,44.70
2018-12-17T05:05:37.980Z,35.03
2018-12-17T05:08:05.476Z,70.20
2018-12-17T05:10:32.946Z,37.28
2018-12-17T05:13:00.461Z,51.37
2018-12-17T05:15:27.940Z,32.13
2018-12-17T05:17:55.384Z,45.73
2018-12-17T05:20:22.868Z,32.20
2018-12-17T05:22:50.325Z,37.15
2018-12-17T05:25:17.784Z,52.90
2018-12-17T05:27:45.233Z,41.80
2018-12-17T05:30:12.896Z,51.20
2018-12-17T05:32:40.359Z,53.20
2018-12-17T05:35:07.868Z,76.15
2018-12-17T05:37:35.328Z,47.20
2018-12-17T05:40:03.626Z,40.58
2018-12-17T05:42:31.081Z,25.70
2018-12-17T05:44:58.535Z,41.35
2018-12-17T05:47:26.008Z,40.28
2018-12-17T05:49:53.465Z,31.62
2018-12-17T05:52:21.019Z,46.65
2018-12-17T05:54:48.465Z,34.30
2018-12-17T05:57:15.916Z,28.23
2018-12-17T05:59:43.377Z,34.90
2018-12-17T06:02:10.857Z,30.17
2018-12-17T06:04:38.312Z,20.68
2018-12-17T06:07:05.884Z,25.23
2018-12-17T06:09:33.598Z,26.33
2018-12-17T06:12:01.076Z,16.32
2018-12-17T06:14:28.525Z,19.45
2018-12-17T06:16:55.982Z,23.77
2018-12-17T06:19:23.468Z,20.45
2018-12-17T06:21:50.953Z,28.40
2018-12-17T06:24:18.436Z,44.40
2018-12-17T06:26:45.927Z,31.27
2018-12-17T06:29:13.384Z,30.62
2018-12-17T06:31:40.872Z,37.65
2018-12-17T06:34:08.379Z,30.62
2018-12-17T06:36:35.840Z,28.98
2018-12-17T06:39:05.947Z,38.10
2018-12-17T06:41:33.433Z,40.30
2018-12-17T06:44:00.880Z,33.15
2018-12-17T06:46:28.338Z,23.87
2018-12-17T06:48:55.795Z,23.22
2018-12-17T06:51:23.996Z,43.95
2018-12-17T06:53:51.450Z,33.83
2018-12-17T06:56:18.931Z,26.87
2018-12-17T06:58:46.419Z,30.10
2018-12-17T07:01:13.880Z,43.28
2018-12-17T07:03:41.329Z,26.00
2018-12-17T07:06:08.809Z,54.30
2018-12-17T07:08:36.260Z,22.82
2018-12-17T07:11:03.771Z,45.17
2018-12-17T07:13:31.220Z,24.40
2018-12-17T07:15:58.746Z,37.95
2018-12-17T07:18:26.218Z,26.65
2018-12-17T07:20:53.669Z,23.98
2018-12-17T07:23:21.126Z,22.32
2018-12-17T07:25:48.597Z,42.65
2018-12-17T07:28:16.096Z,40.00
2018-12-17T07:30:43.540Z,37.80
2018-12-17T07:33:11.000Z,27.40
2018-12-17T07:35:38.452Z,42.03
2018-12-17T07:38:05.904Z,21.07
2018-12-17T07:40:33.357Z,22.82
2018-12-17T07:43:00.847Z,19.98
2018-12-17T07:45:28.300Z,21.40
2018-12-17T07:47:55.847Z,22.35
2018-12-17T07:50:23.315Z,17.65
2018-12-17T07:52:50.857Z,19.57
2018-12-17T07:55:18.308Z,19.23
2018-12-17T07:57:45.769Z,20.70
2018-12-17T08:00:13.531Z,17.12
2018-12-17T08:02:40.996Z,20.65
2018-12-17T08:05:08.451Z,19.07
2018-12-17T08:07:35.904Z,22.45
2018-12-17T08:10:04.611Z,19.85
2018-12-17T08:12:32.063Z,18.30
2018-12-17T08:14:59.608Z,20.82
2018-12-17T08:17:27.093Z,19.52
2018-12-17T08:19:54.871Z,19.52
2018-12-17T08:22:22.651Z,18.98
2018-12-17T08:24:50.961Z,15.83
2018-12-17T08:27:18.586Z,18.67
2018-12-17T08:29:46.044Z,19.48
2018-12-17T08:32:13.543Z,17.17
2018-12-17T08:34:40.991Z,17.60
2018-12-17T08:37:08.444Z,17.50
2018-12-17T08:39:35.905Z,19.75
2018-12-17T08:42:03.412Z,33.73
2018-12-17T08:44:30.863Z,24.43
2018-12-17T08:46:58.327Z,21.05
2018-12-17T08:49:25.780Z,16.77
2018-12-17T08:51:53.315Z,17.12
2018-12-17T08:54:20.776Z,19.60
2018-12-17T08:56:48.221Z,17.17
2018-12-17T08:59:15.692Z,19.60
2018-12-17T09:01:43.204Z,21.73
2018-12-17T09:04:10.660Z,23.02
2018-12-17T09:06:38.144Z,27.62
2018-12-17T09:09:06.263Z,22.62
2018-12-17T09:11:33.749Z,23.32
2018-12-17T09:14:01.210Z,19.45
2018-12-17T09:16:28.653Z,25.25
2018-12-17T09:18:56.125Z,19.55
2018-12-17T09:21:23.568Z,19.17
2018-12-17T09:23:51.071Z,22.35
2018-12-17T09:26:18.557Z,16.85
2018-12-17T09:28:46.016Z,16.60
2018-12-17T09:31:13.560Z,18.98
2018-12-17T09:33:41.044Z,16.93
2018-12-17T09:36:08.643Z,17.80
2018-12-17T09:38:36.160Z,17.50
2018-12-17T09:41:03.727Z,15.45
2018-12-17T09:43:31.208Z,18.87
2018-12-17T09:45:58.656Z,14.03
2018-12-17T09:48:26.138Z,13.00
2018-12-17T09:50:53.587Z,13.32
2018-12-17T09:53:21.054Z,14.50
2018-12-17T09:55:48.598Z,23.07
2018-12-17T09:58:16.159Z,14.03
2018-12-17T10:00:43.612Z,12.70
2018-12-17T10:03:11.089Z,15.37
2018-12-17T10:05:38.544Z,13.18
2018-12-17T10:08:06.013Z,16.60
2018-12-17T10:10:33.460Z,17.67
2018-12-17T10:13:00.936Z,10.33
2018-12-17T10:15:28.420Z,17.57
2018-12-17T10:17:55.860Z,14.77
2018-12-17T10:20:23.404Z,15.33
2018-12-17T10:22:50.885Z,18.30
2018-12-17T10:25:18.331Z,16.07
2018-12-17T10:27:45.779Z,16.43
2018-12-17T10:30:13.244Z,14.73
2018-12-17T10:32:40.713Z,17.13
2018-12-17T10:35:08.239Z,17.27
2018-12-17T10:37:35.717Z,17.20
2018-12-17T10:40:03.908Z,17.70
2018-12-17T10:42:31.357Z,16.40
2018-12-17T10:44:58.835Z,13.47
2018-12-17T10:47:26.285Z,17.40
2018-12-17T10:49:53.738Z,15.17
2018-12-17T10:52:21.207Z,12.47
2018-12-17T10:54:48.684Z,9.63
2018-12-17T10:57:16.233Z,14.43
2018-12-17T10:59:43.763Z,13.07
2018-12-17T11:02:13.200Z,10.60
2018-12-17T11:04:42.607Z,13.77
2018-12-17T11:07:10.061Z,9.13
2018-12-17T11:09:37.775Z,10.33
2018-12-17T11:12:05.248Z,12.03
2018-12-17T11:14:32.731Z,15.23
2018-12-17T11:17:00.184Z,11.20
2018-12-17T11:19:27.650Z,12.60
2018-12-17T11:21:55.140Z,10.40
2018-12-17T11:24:22.694Z,10.47
2018-12-17T11:26:50.156Z,12.73
2018-12-17T11:29:17.591Z,7.90
2018-12-17T11:31:45.037Z,11.17
2018-12-17T11:34:12.484Z,11.47
2018-12-17T11:36:39.960Z,11.10
2018-12-17T11:39:07.460Z,13.40
2018-12-17T11:41:35.112Z,13.80
2018-12-17T11:44:02.596Z,11.33
2018-12-17T11:46:30.043Z,11.07
2018-12-17T11:48:57.507Z,17.90
2018-12-17T11:51:24.993Z,13.83
2018-12-17T11:53:52.469Z,16.27
2018-12-17T11:56:23.792Z,15.97
2018-12-17T11:58:51.243Z,14.17
2018-12-17T12:01:18.712Z,9.70
2018-12-17T12:03:46.179Z,12.67
2018-12-17T12:06:14.466Z,8.07
2018-12-17T12:08:42.093Z,9.17
2018-12-17T12:11:09.548Z,13.63
2018-12-17T12:13:37.081Z,9.90
2018-12-17T12:16:04.528Z,9.80
2018-12-17T12:18:31.964Z,7.10
2018-12-17T12:20:59.456Z,8.17
2018-12-17T12:23:26.903Z,10.47
2018-12-17T12:25:54.396Z,8.70
2018-12-17T12:28:21.844Z,10.80
2018-12-17T12:30:49.460Z,7.53
2018-12-17T12:33:16.885Z,8.67
2018-12-17T12:35:44.332Z,11.47
2018-12-17T12:38:11.804Z,7.90
2018-12-17T12:40:39.248Z,11.43
2018-12-17T12:43:06.692Z,10.67
2018-12-17T12:45:34.167Z,9.30
2018-12-17T12:48:01.611Z,14.07
2018-12-17T12:50:29.059Z,7.60
2018-12-17T12:52:56.527Z,8.23
2018-12-17T12:55:23.994Z,9.67
2018-12-17T12:57:51.443Z,8.10
2018-12-17T13:00:18.883Z,8.90
2018-12-17T13:02:46.355Z,6.97
2018-12-17T13:05:13.794Z,10.77
2018-12-17T13:07:41.237Z,6.47
2018-12-17T13:10:08.961Z,7.17
2018-12-17T13:12:36.413Z,7.10
2018-12-17T13:15:04.606Z,6.70
2018-12-17T13:17:32.052Z,7.57
2018-12-17T13:19:59.494Z,7.07
2018-12-17T13:22:26.943Z,5.60
2018-12-17T13:24:54.388Z,12.53
2018-12-17T13:27:21.870Z,8.77
2018-12-17T13:29:49.316Z,5.47
2018-12-17T13:32:16.765Z,4.33
2018-12-17T13:34:44.203Z,2.97
2018-12-17T13:37:11.680Z,2.37
2018-12-17T13:39:39.112Z,5.57
2018-12-17T13:42:06.584Z,2.67
2018-12-17T13:44:34.039Z,4.30
2018-12-17T13:47:01.479Z,6.13
2018-12-17T13:49:28.933Z,2.43
2018-12-17T13:52:02.175Z,2.60
2018-12-17T13:54:29.616Z,1.10
2018-12-17T13:56:57.090Z,1.40
2018-12-17T13:59:24.537Z,1.40
2018-12-17T14:01:51.974Z,0.97
2018-12-17T14:04:19.424Z,1.37
2018-12-17T14:06:47.500Z,1.10
2018-12-17T14:09:16.376Z,2.37
2018-12-17T14:11:44.074Z,3.35
2018-12-17T14:14:11.531Z,3.60
2018-12-17T14:16:44.587Z,1.57
2018-12-17T14:19:19.051Z,4.80
2018-12-17T14:21:52.296Z,10.37
2018-12-17T14:24:19.744Z,6.80
2018-12-17T14:26:47.204Z,4.78
2018-12-17T14:29:14.660Z,5.77
2018-12-17T14:31:42.103Z,1.50
2018-12-17T14:34:09.564Z,2.57
2018-12-17T14:36:37.040Z,7.53
2018-12-17T14:39:07.168Z,3.05
2018-12-17T14:41:34.960Z,8.73
2018-12-17T14:44:08.223Z,4.10
2018-12-17T14:49:35.380Z,2.60
2018-12-17T14:52:02.876Z,6.23
2018-12-17T14:54:30.320Z,4.77
2018-12-17T14:56:57.755Z,3.50
2018-12-17T14:59:25.683Z,5.70
2018-12-17T15:01:53.110Z,5.77
2018-12-17T15:04:20.558Z,7.57
2018-12-17T15:06:47.991Z,9.83
2018-12-17T15:09:15.434Z,8.23
2018-12-17T15:11:42.892Z,4.13
2018-12-17T15:14:10.371Z,4.23
2018-12-17T15:16:37.832Z,4.60
2018-12-17T15:19:05.306Z,3.33
2018-12-17T15:21:32.747Z,7.53
2018-12-17T15:24:00.238Z,3.20
2018-12-17T15:26:27.736Z,5.57
2018-12-17T15:28:55.216Z,4.07
2018-12-17T15:31:22.687Z,4.27
2018-12-17T15:33:50.151Z,4.30
2018-12-17T15:36:17.588Z,3.57
2018-12-17T15:38:45.023Z,6.10
2018-12-17T15:41:12.474Z,5.50
2018-12-17T15:43:39.907Z,3.13
2018-12-17T15:46:07.336Z,2.40
2018-12-17T15:48:34.786Z,5.40
2018-12-17T15:51:02.224Z,3.10
2018-12-17T15:53:29.668Z,3.17
2018-12-17T15:55:57.115Z,3.23
2018-12-17T15:58:24.551Z,3.83
2018-12-17T16:00:51.984Z,4.37
2018-12-17T16:03:19.424Z,3.80
2018-12-17T16:05:46.891Z,3.97
2018-12-17T16:08:14.333Z,6.10
2018-12-17T16:10:41.778Z,2.97
2018-12-17T16:13:09.216Z,5.07
2018-12-17T16:15:36.672Z,6.60
2018-12-17T16:18:04.134Z,3.93
2018-12-17T16:20:31.586Z,3.60
2018-12-17T16:22:59.047Z,4.70
2018-12-17T16:25:26.501Z,8.33
2018-12-17T16:27:53.960Z,6.73
2018-12-17T16:30:21.420Z,8.10
2018-12-17T16:32:48.888Z,5.43
2018-12-17T16:35:16.331Z,7.13
2018-12-17T16:37:43.775Z,5.97
2018-12-17T16:40:11.327Z,7.17
2018-12-17T16:42:38.801Z,5.70
2018-12-17T16:45:06.780Z,6.67
2018-12-17T16:47:34.228Z,6.43
2018-12-17T16:50:01.700Z,5.20
2018-12-17T16:52:29.148Z,7.77
2018-12-17T16:54:56.601Z,7.17
2018-12-17T16:57:24.036Z,6.90
2018-12-17T16:59:51.482Z,7.47
2018-12-17T17:02:18.927Z,6.53
2018-12-17T17:04:46.379Z,6.87
2018-12-17T17:07:13.823Z,6.27
2018-12-17T17:09:41.268Z,6.73
2018-12-17T17:12:08.716Z,6.40
2018-12-17T17:14:36.167Z,6.10
2018-12-17T17:17:03.668Z,9.07
2018-12-17T17:19:31.107Z,7.93
2018-12-17T17:21:58.555Z,8.57
2018-12-17T17:24:25.997Z,6.87
2018-12-17T17:26:53.465Z,7.07
2018-12-17T17:29:20.896Z,8.20
2018-12-17T17:31:48.342Z,5.67
2018-12-17T17:34:15.792Z,6.97
2018-12-17T17:36:43.247Z,5.90
2018-12-17T17:39:10.692Z,7.60
2018-12-17T17:41:38.163Z,10.70
2018-12-17T17:44:05.634Z,6.10
2018-12-17T17:46:33.084Z,10.67
2018-12-17T17:49:00.613Z,8.77
2018-12-17T17:51:28.060Z,7.87
2018-12-17T17:53:55.509Z,10.17
2018-12-17T17:56:22.960Z,11.93
2018-12-17T17:58:50.528Z,9.80
2018-12-17T18:01:17.975Z,11.53
2018-12-17T18:03:45.428Z,10.30
2018-12-17T18:06:16.205Z,12.93
2018-12-17T18:08:42.319Z,9.37
2018-12-17T18:11:09.771Z,9.47
2018-12-17T18:13:37.267Z,12.13
2018-12-17T18:16:04.770Z,9.23
2018-12-17T18:18:32.206Z,12.90
2018-12-17T18:20:59.681Z,9.40
2018-12-17T18:23:27.210Z,12.30
2018-12-17T18:25:54.762Z,9.00
2018-12-17T18:28:22.211Z,12.00
2018-12-17T18:30:49.667Z,14.60
2018-12-17T18:33:17.112Z,12.07
2018-12-17T18:35:44.651Z,13.87
2018-12-17T18:38:12.260Z,10.37
2018-12-17T18:40:39.705Z,11.17
2018-12-17T18:43:07.184Z,16.33
2018-12-17T18:45:34.643Z,15.80
2018-12-17T18:48:02.105Z,15.10
2018-12-17T18:50:29.639Z,14.73
2018-12-17T18:52:57.096Z,13.77
2018-12-17T18:55:24.555Z,13.53
2018-12-17T18:57:52.017Z,13.33
2018-12-17T19:00:19.593Z,12.27
2018-12-17T19:02:47.068Z,14.10
2018-12-17T19:05:14.523Z,14.13
2018-12-17T19:07:41.964Z,12.70
2018-12-17T19:10:09.487Z,15.20
2018-12-17T19:12:37.185Z,18.27
2018-12-17T19:15:05.461Z,20.07
2018-12-17T19:17:32.901Z,16.87
2018-12-17T19:20:00.357Z,13.40
2018-12-17T19:22:27.801Z,19.97
2018-12-17T19:24:55.257Z,13.00
2018-12-17T19:27:22.700Z,16.00
2018-12-17T19:29:50.157Z,13.57
2018-12-17T19:32:17.636Z,18.80
2018-12-17T19:34:45.097Z,17.73
2018-12-17T19:37:12.559Z,17.37
2018-12-17T19:39:40.007Z,15.83
2018-12-17T19:42:07.484Z,15.63
2018-12-17T19:44:34.927Z,14.40
2018-12-17T19:47:02.396Z,16.67
2018-12-17T19:49:29.896Z,13.53
2018-12-17T19:51:57.387Z,16.00
2018-12-17T19:54:24.852Z,15.73
2018-12-17T19:56:52.328Z,16.50
2018-12-17T19:59:19.772Z,15.07
2018-12-17T20:01:47.232Z,17.23
2018-12-17T20:04:14.686Z,18.40
2018-12-17T20:06:42.141Z,16.70
2018-12-17T20:09:09.587Z,18.13
2018-12-17T20:11:37.056Z,12.87
2018-12-17T20:14:04.532Z,15.07
2018-12-17T20:16:32.019Z,15.73
2018-12-17T20:18:59.468Z,15.03
2018-12-17T20:21:26.935Z,19.10
2018-12-17T20:23:54.383Z,16.20
2018-12-17T20:26:21.835Z,16.73
2018-12-17T20:28:49.296Z,15.87
2018-12-17T20:31:16.791Z,14.17
2018-12-17T20:33:44.239Z,16.40
2018-12-17T20:36:11.683Z,16.07
2018-12-17T20:38:39.159Z,14.43
2018-12-17T20:41:06.604Z,13.53
2018-12-17T20:43:34.044Z,14.37
2018-12-17T20:46:01.516Z,18.63
2018-12-17T20:48:28.955Z,16.10
2018-12-17T20:50:56.408Z,13.67
2018-12-17T20:53:23.858Z,15.37
2018-12-17T20:55:51.307Z,13.63
2018-12-17T20:58:18.738Z,14.40
2018-12-17T21:00:46.216Z,14.70
2018-12-17T21:03:13.665Z,17.97
2018-12-17T21:05:41.846Z,13.23
2018-12-17T21:08:09.461Z,15.27
2018-12-17T21:10:37.025Z,13.17
2018-12-17T21:13:04.568Z,15.17
2018-12-17T21:15:32.023Z,17.80
2018-12-17T21:17:59.508Z,13.07
2018-12-17T21:20:27.001Z,15.73
2018-12-17T21:22:54.535Z,14.37
2018-12-17T21:25:21.971Z,13.00
2018-12-17T21:27:49.419Z,17.03
2018-12-17T21:30:16.888Z,12.07
2018-12-17T21:32:44.365Z,15.70
2018-12-17T21:35:11.805Z,13.43
2018-12-17T21:37:39.253Z,14.87
2018-12-17T21:40:06.936Z,13.20
2018-12-17T21:42:34.377Z,13.20
2018-12-17T21:45:01.859Z,13.87
2018-12-17T21:47:29.324Z,14.50
2018-12-17T21:49:56.799Z,14.33
2018-12-17T21:52:25.567Z,13.93
2018-12-17T21:54:53.167Z,15.43
2018-12-17T21:57:20.622Z,16.40
2018-12-17T21:59:48.068Z,12.53
2018-12-17T22:02:15.511Z,14.57
2018-12-17T22:04:42.954Z,14.33
2018-12-17T22:07:10.440Z,13.40
2018-12-17T22:09:37.936Z,11.40
2018-12-17T22:12:05.424Z,13.03
2018-12-17T22:14:32.908Z,13.23
2018-12-17T22:17:00.363Z,15.50
2018-12-17T22:19:27.810Z,12.83
2018-12-17T22:21:55.301Z,16.33
2018-12-17T22:24:22.838Z,14.70
2018-12-17T22:26:50.292Z,16.53
2018-12-17T22:29:17.744Z,15.03
2018-12-17T22:31:45.240Z,17.57
2018-12-17T22:34:12.684Z,17.40
2018-12-17T22:36:40.164Z,15.80
2018-12-17T22:39:07.624Z,15.83
2018-12-17T22:41:35.091Z,14.63
2018-12-17T22:44:02.536Z,13.23
2018-12-17T22:46:30.029Z,15.00
2018-12-17T22:48:57.532Z,15.47
2018-12-17T22:51:24.989Z,12.50
2018-12-17T22:53:52.437Z,16.03
2018-12-17T22:56:19.885Z,15.63
2018-12-17T22:58:47.362Z,16.83
2018-12-17T23:01:14.864Z,17.17
2018-12-17T23:03:42.328Z,16.20
2018-12-17T23:06:09.780Z,15.10
2018-12-17T23:08:41.083Z,14.40
2018-12-17T23:11:20.616Z,15.17
2018-12-17T23:13:59.853Z,14.07
2018-12-17T23:16:39.228Z,14.00
2018-12-17T23:19:06.488Z,12.57
2018-12-17T23:21:34.017Z,14.93
2018-12-17T23:24:01.519Z,17.80
2018-12-17T23:26:28.992Z,16.50
2018-12-17T23:28:56.444Z,18.37
2018-12-17T23:31:23.951Z,16.90
2018-12-17T23:33:51.431Z,16.20
2018-12-17T23:36:18.887Z,14.80
2018-12-17T23:38:46.386Z,15.28
2018-12-17T23:41:13.843Z,17.27
2018-12-17T23:43:41.344Z,15.15
2018-12-17T23:46:08.881Z,17.77
2018-12-17T23:48:36.369Z,15.03
2018-12-17T23:51:03.867Z,21.40
2018-12-17T23:53:31.367Z,19.37
2018-12-17T23:55:58.824Z,17.73
2018-12-17T23:58:26.282Z,21.63
